createdAt,value
2023-04-26T00:00:06.565Z,63.90
2023-04-26T00:01:06.543Z,64.00
2023-04-26T00:02:06.523Z,64.24
2023-04-26T00:03:06.604Z,64.44
2023-04-26T00:04:06.838Z,64.54
2023-04-26T00:05:07.384Z,64.54
2023-04-26T00:06:06.486Z,64.86
2023-04-26T00:07:06.583Z,64.96
2023-04-26T00:08:06.484Z,65.16
2023-04-26T00:09:06.486Z,65.30
2023-04-26T00:10:06.507Z,65.40
2023-04-26T00:11:06.440Z,65.40
2023-04-26T00:12:06.466Z,65.71
2023-04-26T00:13:06.432Z,65.92
2023-04-26T00:14:06.431Z,65.92
2023-04-26T00:15:06.400Z,66.12
2023-04-26T00:16:06.463Z,66.25
2023-04-26T00:17:06.417Z,66.36
2023-04-26T00:18:06.603Z,66.56
2023-04-26T00:19:06.405Z,67.08
2023-04-26T00:20:06.363Z,66.87
2023-04-26T00:21:06.344Z,66.97
2023-04-26T00:22:06.349Z,68.01
2023-04-26T00:23:06.356Z,69.76
2023-04-26T00:24:06.297Z,69.55
2023-04-26T00:25:06.306Z,68.42
2023-04-26T00:26:06.309Z,67.18
2023-04-26T00:27:06.280Z,66.53
2023-04-26T00:28:06.461Z,66.53
2023-04-26T00:29:06.261Z,68.39
2023-04-26T00:30:06.257Z,67.97
2023-04-26T00:31:06.281Z,66.94
2023-04-26T00:32:06.305Z,66.64
2023-04-26T00:33:06.228Z,66.64
2023-04-26T00:34:06.218Z,66.43
2023-04-26T00:35:06.215Z,66.74
2023-04-26T00:36:06.304Z,66.33
2023-04-26T00:37:06.259Z,66.46
2023-04-26T00:38:06.223Z,66.77
2023-04-26T00:39:06.173Z,67.80
2023-04-26T00:40:06.141Z,68.73
2023-04-26T00:41:06.143Z,67.97
2023-04-26T00:42:06.169Z,66.74
2023-04-26T00:43:06.273Z,67.97
2023-04-26T00:44:06.104Z,68.18
2023-04-26T00:45:06.120Z,67.36
2023-04-26T00:46:06.255Z,66.43
2023-04-26T00:47:06.081Z,66.02
2023-04-26T00:48:06.218Z,66.43
2023-04-26T00:49:06.054Z,67.87
2023-04-26T00:50:06.054Z,69.01
2023-04-26T00:51:06.056Z,70.24
2023-04-26T00:52:06.234Z,67.46
2023-04-26T00:53:06.082Z,69.11
2023-04-26T00:54:06.027Z,69.62
2023-04-26T00:55:06.059Z,70.45
2023-04-26T00:56:06.072Z,69.31
2023-04-26T00:57:06.001Z,70.31
2023-04-26T00:58:05.998Z,68.66
2023-04-26T00:59:05.982Z,68.77
2023-04-26T01:00:06.052Z,68.66
2023-04-26T01:01:06.016Z,68.87
2023-04-26T01:02:05.980Z,69.79
2023-04-26T01:03:06.101Z,70.52
2023-04-26T01:04:06.130Z,70.10
2023-04-26T01:05:05.966Z,70.21
2023-04-26T01:06:05.895Z,69.28
2023-04-26T01:07:05.929Z,69.07
2023-04-26T01:08:05.862Z,69.18
2023-04-26T01:09:05.882Z,69.07
2023-04-26T01:10:05.861Z,69.07
2023-04-26T01:11:05.867Z,69.52
2023-04-26T01:12:05.837Z,70.55
2023-04-26T01:13:05.840Z,70.86
2023-04-26T01:14:05.858Z,70.04
2023-04-26T01:15:05.830Z,67.94
2023-04-26T01:16:05.820Z,67.25
2023-04-26T01:17:05.961Z,67.36
2023-04-26T01:18:05.814Z,67.66
2023-04-26T01:19:05.780Z,67.57
2023-04-26T01:20:05.757Z,68.18
2023-04-26T01:21:05.809Z,67.29
2023-04-26T01:22:05.731Z,67.39
2023-04-26T01:23:05.872Z,68.52
2023-04-26T01:24:05.717Z,68.45
2023-04-26T01:25:05.899Z,68.45
2023-04-26T01:26:05.735Z,68.66
2023-04-26T01:27:05.701Z,68.76
2023-04-26T01:28:05.684Z,68.96
2023-04-26T01:29:05.707Z,68.90
2023-04-26T01:30:05.662Z,70.65
2023-04-26T01:31:05.725Z,69.82
2023-04-26T01:32:05.694Z,70.34
2023-04-26T01:33:05.673Z,70.44
2023-04-26T01:34:05.609Z,72.19
2023-04-26T01:35:05.611Z,72.09
2023-04-26T01:36:05.621Z,73.02
2023-04-26T01:37:05.597Z,71.44
2023-04-26T01:38:05.593Z,70.41
2023-04-26T01:39:05.573Z,70.23
2023-04-26T01:40:05.560Z,70.23
2023-04-26T01:41:05.579Z,69.72
2023-04-26T01:42:05.556Z,69.31
2023-04-26T01:43:05.538Z,69.41
2023-04-26T01:44:05.506Z,69.93
2023-04-26T01:45:05.572Z,72.09
2023-04-26T01:46:05.523Z,72.09
2023-04-26T01:47:05.549Z,71.64
2023-04-26T01:48:05.523Z,71.44
2023-04-26T01:49:05.510Z,71.23
2023-04-26T01:50:05.454Z,71.44
2023-04-26T01:51:05.492Z,71.03
2023-04-26T01:52:05.519Z,69.69
2023-04-26T01:53:05.428Z,70.20
2023-04-26T01:54:05.421Z,72.88
2023-04-26T01:55:05.428Z,70.82
2023-04-26T01:56:05.425Z,71.13
2023-04-26T01:57:05.451Z,70.51
2023-04-26T01:58:05.377Z,69.38
2023-04-26T01:59:05.374Z,71.85
2023-04-26T02:00:05.398Z,73.57
2023-04-26T02:01:05.480Z,72.03
2023-04-26T02:02:05.491Z,71.10
2023-04-26T02:03:05.403Z,70.58
2023-04-26T02:04:05.305Z,70.58
2023-04-26T02:05:05.400Z,71.72
2023-04-26T02:06:05.313Z,72.13
2023-04-26T02:07:05.295Z,71.30
2023-04-26T02:08:05.350Z,70.68
2023-04-26T02:09:05.282Z,71.10
2023-04-26T02:10:05.288Z,72.54
2023-04-26T02:11:05.260Z,70.68
2023-04-26T02:12:05.237Z,71.44
2023-04-26T02:13:05.233Z,72.16
2023-04-26T02:14:05.248Z,72.99
2023-04-26T02:15:05.238Z,71.51
2023-04-26T02:16:05.294Z,73.88
2023-04-26T02:17:05.235Z,72.03
2023-04-26T02:18:05.218Z,71.20
2023-04-26T02:19:05.240Z,72.23
2023-04-26T02:20:05.190Z,71.51
2023-04-26T02:21:05.175Z,70.92
2023-04-26T02:22:05.129Z,71.75
2023-04-26T02:23:05.130Z,73.02
2023-04-26T02:24:05.135Z,71.89
2023-04-26T02:25:05.157Z,72.09
2023-04-26T02:26:05.803Z,72.30
2023-04-26T02:27:05.142Z,72.19
2023-04-26T02:28:05.068Z,74.57
2023-04-26T02:29:05.096Z,74.67
2023-04-26T02:30:05.070Z,73.60
2023-04-26T02:31:05.152Z,72.78
2023-04-26T02:32:05.076Z,72.16
2023-04-26T02:33:05.042Z,71.95
2023-04-26T02:34:05.005Z,72.71
2023-04-26T02:35:05.020Z,72.50
2023-04-26T02:36:05.370Z,73.95
2023-04-26T02:37:05.010Z,73.22
2023-04-26T02:38:05.006Z,72.09
2023-04-26T02:39:05.012Z,73.74
2023-04-26T02:40:04.984Z,73.22
2023-04-26T02:41:04.957Z,73.33
2023-04-26T02:42:05.074Z,74.05
2023-04-26T02:43:04.947Z,72.61
2023-04-26T02:44:04.905Z,73.64
2023-04-26T02:45:04.920Z,71.99
2023-04-26T02:46:04.880Z,71.30
2023-04-26T02:47:04.988Z,73.36
2023-04-26T02:48:04.969Z,73.05
2023-04-26T02:49:04.904Z,73.05
2023-04-26T02:50:04.859Z,74.53
2023-04-26T02:51:04.866Z,75.36
2023-04-26T02:52:04.854Z,76.87
2023-04-26T02:53:04.858Z,76.04
2023-04-26T02:54:06.973Z,74.91
2023-04-26T02:55:04.840Z,73.64
2023-04-26T02:56:04.789Z,73.22
2023-04-26T02:57:04.806Z,72.54
2023-04-26T02:58:04.815Z,72.44
2023-04-26T02:59:04.805Z,73.57
2023-04-26T03:00:04.753Z,73.36
2023-04-26T03:01:04.756Z,73.98
2023-04-26T03:02:04.763Z,74.22
2023-04-26T03:03:04.942Z,73.29
2023-04-26T03:04:04.892Z,73.91
2023-04-26T03:05:04.713Z,73.91
2023-04-26T03:06:04.703Z,74.15
2023-04-26T03:07:04.689Z,73.95
2023-04-26T03:08:04.678Z,74.05
2023-04-26T03:09:04.706Z,75.19
2023-04-26T03:10:04.663Z,74.98
2023-04-26T03:11:04.649Z,75.39
2023-04-26T03:12:04.649Z,75.91
2023-04-26T03:13:04.651Z,75.19
2023-04-26T03:14:04.672Z,74.77
2023-04-26T03:15:04.617Z,74.88
2023-04-26T03:16:04.638Z,74.36
2023-04-26T03:17:04.595Z,74.77
2023-04-26T03:18:04.660Z,74.98
2023-04-26T03:19:04.571Z,74.98
2023-04-26T03:20:04.548Z,75.60
2023-04-26T03:21:04.546Z,75.49
2023-04-26T03:22:04.551Z,75.81
2023-04-26T03:23:04.522Z,75.98
2023-04-26T03:24:04.526Z,75.87
2023-04-26T03:25:04.548Z,74.63
2023-04-26T03:26:04.508Z,75.46
2023-04-26T03:27:04.513Z,75.05
2023-04-26T03:28:05.506Z,74.43
2023-04-26T03:29:04.459Z,75.26
2023-04-26T03:30:04.454Z,75.05
2023-04-26T03:31:04.458Z,76.18
2023-04-26T03:32:04.612Z,76.87
2023-04-26T03:33:04.433Z,75.12
2023-04-26T03:34:04.408Z,75.84
2023-04-26T03:35:04.405Z,74.05
2023-04-26T03:36:04.396Z,74.77
2023-04-26T03:37:04.444Z,75.09
2023-04-26T03:38:04.333Z,73.85
2023-04-26T03:39:04.363Z,73.12
2023-04-26T03:40:04.361Z,72.09
2023-04-26T03:41:04.320Z,73.74
2023-04-26T03:42:04.299Z,73.36
2023-04-26T03:43:04.313Z,74.19
2023-04-26T03:44:04.337Z,73.47
2023-04-26T03:45:04.271Z,73.29
2023-04-26T03:46:04.358Z,73.39
2023-04-26T03:47:04.229Z,74.36
2023-04-26T03:48:04.391Z,77.04
2023-04-26T03:49:04.241Z,76.18
2023-04-26T03:50:04.242Z,74.57
2023-04-26T03:51:04.211Z,75.09
2023-04-26T03:52:04.324Z,77.56
2023-04-26T03:53:04.227Z,75.98
2023-04-26T03:54:04.188Z,74.53
2023-04-26T03:55:04.162Z,74.15
2023-04-26T03:56:04.160Z,75.19
2023-04-26T03:57:04.154Z,74.67
2023-04-26T03:58:04.217Z,75.63
2023-04-26T03:59:04.201Z,75.84
2023-04-26T04:00:04.105Z,75.63
2023-04-26T04:01:04.077Z,76.36
2023-04-26T04:02:04.141Z,78.08
2023-04-26T04:03:04.408Z,78.28
2023-04-26T04:04:04.259Z,74.53
2023-04-26T04:05:04.173Z,74.74
2023-04-26T04:06:04.067Z,74.53
2023-04-26T04:07:04.036Z,75.46
2023-04-26T04:08:04.010Z,75.39
2023-04-26T04:09:04.033Z,76.18
2023-04-26T04:10:04.077Z,75.77
2023-04-26T04:11:04.066Z,77.22
2023-04-26T04:12:04.023Z,76.60
2023-04-26T04:13:03.968Z,75.84
2023-04-26T04:14:03.994Z,76.04
2023-04-26T04:15:04.547Z,73.05
2023-04-26T04:16:03.996Z,75.32
2023-04-26T04:17:03.917Z,73.36
2023-04-26T04:18:03.972Z,75.32
2023-04-26T04:19:03.948Z,76.04
2023-04-26T04:20:04.547Z,74.40
2023-04-26T04:21:03.956Z,73.57
2023-04-26T04:22:03.879Z,76.67
2023-04-26T04:23:03.873Z,75.63
2023-04-26T04:24:03.863Z,75.01
2023-04-26T04:25:03.849Z,74.50
2023-04-26T04:26:03.861Z,73.77
2023-04-26T04:27:03.876Z,75.53
2023-04-26T04:28:03.812Z,76.32
2023-04-26T04:29:03.849Z,74.05
2023-04-26T04:30:03.806Z,75.87
2023-04-26T04:31:03.849Z,75.46
2023-04-26T04:32:03.788Z,73.88
2023-04-26T04:33:03.830Z,74.08
2023-04-26T04:34:03.782Z,74.91
2023-04-26T04:35:03.745Z,70.79
2023-04-26T04:36:03.748Z,72.13
2023-04-26T04:37:03.768Z,72.27
2023-04-26T04:38:03.721Z,73.50
2023-04-26T04:39:03.736Z,73.09
2023-04-26T04:40:03.711Z,71.13
2023-04-26T04:41:03.802Z,73.22
2023-04-26T04:42:03.702Z,73.12
2023-04-26T04:43:03.705Z,74.26
2023-04-26T04:44:03.678Z,74.98
2023-04-26T04:45:03.701Z,73.05
2023-04-26T04:46:03.722Z,76.98
2023-04-26T04:47:03.728Z,73.22
2023-04-26T04:48:03.976Z,75.81
2023-04-26T04:49:03.633Z,76.29
2023-04-26T04:50:04.266Z,72.27
2023-04-26T04:51:03.646Z,71.06
2023-04-26T04:52:03.622Z,75.49
2023-04-26T04:53:03.735Z,72.50
2023-04-26T04:54:03.646Z,74.05
2023-04-26T04:55:03.614Z,74.88
2023-04-26T04:56:03.573Z,73.26
2023-04-26T04:57:03.574Z,73.47
2023-04-26T04:58:03.568Z,74.91
2023-04-26T04:59:03.511Z,75.12
2023-04-26T05:00:03.551Z,74.71
2023-04-26T05:01:03.486Z,73.16
2023-04-26T05:02:03.508Z,75.95
2023-04-26T05:03:03.675Z,75.43
2023-04-26T05:04:03.735Z,75.74
2023-04-26T05:05:03.571Z,76.12
2023-04-26T05:06:03.492Z,73.43
2023-04-26T05:07:03.438Z,73.68
2023-04-26T05:08:03.889Z,75.12
2023-04-26T05:09:04.386Z,76.04
2023-04-26T05:10:03.464Z,75.09
2023-04-26T05:11:03.456Z,74.77
2023-04-26T05:12:03.413Z,74.26
2023-04-26T05:13:03.457Z,72.44
2023-04-26T05:14:03.388Z,73.77
2023-04-26T05:15:03.454Z,73.57
2023-04-26T05:16:03.355Z,74.43
2023-04-26T05:17:03.367Z,74.22
2023-04-26T05:18:03.393Z,74.88
2023-04-26T05:19:03.428Z,77.01
2023-04-26T05:20:03.315Z,76.60
2023-04-26T05:21:03.303Z,75.46
2023-04-26T05:22:03.394Z,77.59
2023-04-26T05:23:03.322Z,77.18
2023-04-26T05:24:03.266Z,76.01
2023-04-26T05:25:03.396Z,74.36
2023-04-26T05:26:03.247Z,71.47
2023-04-26T05:27:03.235Z,71.92
2023-04-26T05:28:03.222Z,75.53
2023-04-26T05:29:03.260Z,75.74
2023-04-26T05:30:03.297Z,76.12
2023-04-26T05:31:03.199Z,75.29
2023-04-26T05:32:03.234Z,74.53
2023-04-26T05:33:03.215Z,74.53
2023-04-26T05:34:03.159Z,75.84
2023-04-26T05:35:03.412Z,74.19
2023-04-26T05:36:03.161Z,73.95
2023-04-26T05:37:03.182Z,72.71
2023-04-26T05:38:03.201Z,71.89
2023-04-26T05:39:03.119Z,70.96
2023-04-26T05:40:03.144Z,72.20
2023-04-26T05:41:03.111Z,72.58
2023-04-26T05:42:03.080Z,71.31
2023-04-26T05:43:03.121Z,70.49
2023-04-26T05:44:03.996Z,65.91
2023-04-26T05:45:03.085Z,66.22
2023-04-26T05:46:03.082Z,62.92
2023-04-26T05:47:03.077Z,62.14
2023-04-26T05:48:03.122Z,60.81
2023-04-26T05:49:03.013Z,62.04
2023-04-26T05:50:04.353Z,60.78
2023-04-26T05:51:03.086Z,59.63
2023-04-26T05:52:02.992Z,60.83
2023-04-26T05:53:03.003Z,59.70
2023-04-26T05:54:02.992Z,57.35
2023-04-26T05:55:03.039Z,57.99
2023-04-26T05:56:02.986Z,59.94
2023-04-26T05:57:03.005Z,59.01
2023-04-26T05:58:02.973Z,60.06
2023-04-26T05:59:03.020Z,58.53
2023-04-26T06:00:03.003Z,58.45
2023-04-26T06:01:03.182Z,60.33
2023-04-26T06:02:02.930Z,59.58
2023-04-26T06:03:03.053Z,59.50
2023-04-26T06:04:03.304Z,61.93
2023-04-26T06:05:03.224Z,58.84
2023-04-26T06:06:02.921Z,59.50
2023-04-26T06:07:02.900Z,59.23
2023-04-26T06:08:02.862Z,56.25
2023-04-26T06:09:02.904Z,55.82
2023-04-26T06:10:02.861Z,57.57
2023-04-26T06:11:02.870Z,56.89
2023-04-26T06:12:02.805Z,56.51
2023-04-26T06:13:02.764Z,57.45
2023-04-26T06:14:02.764Z,58.81
2023-04-26T06:15:02.749Z,57.40
2023-04-26T06:16:02.786Z,59.66
2023-04-26T06:17:02.800Z,58.15
2023-04-26T06:18:03.053Z,61.01
2023-04-26T06:19:02.754Z,61.19
2023-04-26T06:20:02.728Z,59.83
2023-04-26T06:21:02.751Z,58.84
2023-04-26T06:22:02.717Z,57.61
2023-04-26T06:23:02.698Z,59.45
2023-04-26T06:24:02.698Z,59.39
2023-04-26T06:25:02.643Z,56.63
2023-04-26T06:26:02.634Z,58.53
2023-04-26T06:27:02.645Z,58.02
2023-04-26T06:28:02.947Z,56.46
2023-04-26T06:29:02.655Z,57.48
2023-04-26T06:30:02.619Z,56.35
2023-04-26T06:31:02.602Z,59.35
2023-04-26T06:32:02.592Z,58.02
2023-04-26T06:33:02.679Z,57.33
2023-04-26T06:34:02.556Z,57.33
2023-04-26T06:35:02.668Z,57.74
2023-04-26T06:36:02.689Z,58.76
2023-04-26T06:37:02.557Z,58.66
2023-04-26T06:38:03.629Z,60.53
2023-04-26T06:39:02.536Z,60.02
2023-04-26T06:40:02.570Z,61.63
2023-04-26T06:41:02.530Z,59.96
2023-04-26T06:42:02.602Z,58.61
2023-04-26T06:43:02.652Z,56.40
2023-04-26T06:44:02.548Z,58.14
2023-04-26T06:45:02.511Z,59.03
2023-04-26T06:46:02.496Z,57.78
2023-04-26T06:47:02.513Z,55.33
2023-04-26T06:48:02.546Z,54.03
2023-04-26T06:49:02.474Z,55.18
2023-04-26T06:50:02.476Z,55.99
2023-04-26T06:51:02.405Z,56.94
2023-04-26T06:52:02.431Z,56.63
2023-04-26T06:53:02.403Z,56.63
2023-04-26T06:54:02.377Z,57.12
2023-04-26T06:55:02.494Z,54.90
2023-04-26T06:56:02.355Z,56.10
2023-04-26T06:57:02.375Z,58.20
2023-04-26T06:58:02.356Z,59.23
2023-04-26T06:59:02.794Z,60.05
2023-04-26T07:00:02.475Z,59.46
2023-04-26T07:01:02.400Z,58.84
2023-04-26T07:02:02.386Z,58.95
2023-04-26T07:03:02.554Z,58.23
2023-04-26T07:04:03.585Z,58.12
2023-04-26T07:05:02.592Z,58.33
2023-04-26T07:06:02.326Z,58.54
2023-04-26T07:07:02.548Z,58.23
2023-04-26T07:08:02.251Z,58.95
2023-04-26T07:09:03.019Z,58.54
2023-04-26T07:10:02.956Z,58.64
2023-04-26T07:11:02.233Z,58.95
2023-04-26T07:12:02.307Z,58.95
2023-04-26T07:13:02.237Z,58.64
2023-04-26T07:14:02.901Z,58.46
2023-04-26T07:15:02.246Z,58.67
2023-04-26T07:16:02.325Z,58.92
2023-04-26T07:17:02.163Z,61.60
2023-04-26T07:18:02.364Z,61.08
2023-04-26T07:19:02.241Z,61.39
2023-04-26T07:20:02.157Z,61.26
2023-04-26T07:21:02.095Z,61.26
2023-04-26T07:22:02.094Z,60.61
2023-04-26T07:23:02.095Z,60.07
2023-04-26T07:24:02.101Z,59.74
2023-04-26T07:25:02.051Z,58.38
2023-04-26T07:26:02.105Z,58.07
2023-04-26T07:27:02.064Z,57.66
2023-04-26T07:28:02.077Z,58.38
2023-04-26T07:29:02.065Z,57.46
2023-04-26T07:30:02.092Z,56.84
2023-04-26T07:31:02.016Z,56.74
2023-04-26T07:32:02.872Z,56.20
2023-04-26T07:33:02.105Z,56.10
2023-04-26T07:34:01.988Z,56.41
2023-04-26T07:35:02.075Z,56.20
2023-04-26T07:36:01.952Z,56.41
2023-04-26T07:37:08.652Z,56.82
2023-04-26T07:38:01.955Z,56.51
2023-04-26T07:39:01.969Z,55.58
2023-04-26T07:40:01.949Z,56.00
2023-04-26T07:41:01.930Z,55.90
2023-04-26T07:42:01.900Z,57.20
2023-04-26T07:43:02.019Z,56.79
2023-04-26T07:44:01.904Z,55.46
2023-04-26T07:45:01.945Z,54.85
2023-04-26T07:46:01.896Z,54.54
2023-04-26T07:47:01.832Z,54.51
2023-04-26T07:48:01.886Z,54.31
2023-04-26T07:49:01.800Z,54.31
2023-04-26T07:50:02.568Z,53.80
2023-04-26T07:51:02.063Z,53.80
2023-04-26T07:52:02.802Z,53.69
2023-04-26T07:53:01.820Z,52.98
2023-04-26T07:54:01.760Z,52.87
2023-04-26T07:55:01.808Z,52.26
2023-04-26T07:56:01.917Z,52.47
2023-04-26T07:57:03.761Z,52.98
2023-04-26T07:58:01.740Z,51.86
2023-04-26T07:59:02.990Z,51.83
2023-04-26T08:00:01.727Z,52.14
2023-04-26T08:01:01.728Z,51.54
2023-04-26T08:02:01.742Z,51.34
2023-04-26T08:03:03.129Z,50.96
2023-04-26T08:04:02.158Z,51.21
2023-04-26T08:05:01.840Z,50.39
2023-04-26T08:06:02.625Z,50.90
2023-04-26T08:07:01.631Z,50.59
2023-04-26T08:08:02.434Z,50.47
2023-04-26T08:09:01.653Z,49.14
2023-04-26T08:10:02.094Z,47.78
2023-04-26T08:11:01.567Z,47.99
2023-04-26T08:12:01.647Z,48.30
2023-04-26T08:13:01.589Z,49.42
2023-04-26T08:14:01.616Z,48.30
2023-04-26T08:15:01.619Z,48.89
2023-04-26T08:16:01.550Z,48.97
2023-04-26T08:17:01.576Z,47.82
2023-04-26T08:18:01.877Z,47.61
2023-04-26T08:19:01.600Z,47.72
2023-04-26T08:20:01.502Z,48.13
2023-04-26T08:21:01.503Z,48.23
2023-04-26T08:22:01.569Z,48.00
2023-04-26T08:23:01.620Z,47.69
2023-04-26T08:24:01.470Z,47.80
2023-04-26T08:25:01.467Z,48.10
2023-04-26T08:26:01.958Z,47.88
2023-04-26T08:27:02.601Z,47.98
2023-04-26T08:28:01.431Z,48.59
2023-04-26T08:29:01.410Z,47.14
2023-04-26T08:30:01.923Z,46.83
2023-04-26T08:31:01.471Z,46.63
2023-04-26T08:32:01.429Z,46.63
2023-04-26T08:33:02.175Z,46.83
2023-04-26T08:34:01.387Z,46.51
2023-04-26T08:35:01.918Z,46.20
2023-04-26T08:36:01.451Z,46.00
2023-04-26T08:37:01.434Z,45.59
2023-04-26T08:38:02.648Z,45.72
2023-04-26T08:39:01.331Z,45.92
2023-04-26T08:40:01.404Z,46.22
2023-04-26T08:41:01.496Z,45.81
2023-04-26T08:42:01.301Z,45.61
2023-04-26T08:43:02.260Z,45.73
2023-04-26T08:44:01.391Z,45.73
2023-04-26T08:45:02.323Z,46.16
2023-04-26T08:46:01.408Z,46.57
2023-04-26T08:47:01.215Z,46.70
2023-04-26T08:48:03.241Z,47.00
2023-04-26T08:49:01.206Z,47.11
2023-04-26T08:50:01.177Z,47.53
2023-04-26T08:51:01.225Z,47.85
2023-04-26T08:52:01.188Z,48.02
2023-04-26T08:53:01.597Z,48.33
2023-04-26T08:54:02.768Z,47.82
2023-04-26T08:55:01.215Z,47.19
2023-04-26T08:56:01.248Z,47.19
2023-04-26T08:57:01.165Z,46.88
2023-04-26T08:58:01.126Z,46.57
2023-04-26T08:59:01.248Z,46.98
2023-04-26T09:00:01.093Z,47.16
2023-04-26T09:01:01.994Z,46.86
2023-04-26T09:02:01.106Z,46.25
2023-04-26T09:03:01.223Z,46.22
2023-04-26T09:04:01.217Z,46.33
2023-04-26T09:05:01.227Z,46.53
2023-04-26T09:06:03.161Z,46.53
2023-04-26T09:07:02.065Z,45.81
2023-04-26T09:08:01.083Z,45.81
2023-04-26T09:09:01.019Z,45.31
2023-04-26T09:10:01.011Z,45.40
2023-04-26T09:11:00.994Z,45.40
2023-04-26T09:12:01.014Z,45.10
2023-04-26T09:13:09.959Z,44.90
2023-04-26T09:14:01.932Z,45.00
2023-04-26T09:15:01.065Z,43.98
2023-04-26T09:16:02.673Z,44.78
2023-04-26T09:17:00.981Z,45.49
2023-04-26T09:18:01.193Z,45.49
2023-04-26T09:19:00.926Z,43.44
2023-04-26T09:20:00.978Z,42.73
2023-04-26T09:21:00.876Z,42.12
2023-04-26T09:22:01.008Z,44.26
2023-04-26T09:23:00.915Z,42.12
2023-04-26T09:24:01.013Z,42.77
2023-04-26T09:25:00.881Z,43.08
2023-04-26T09:26:00.870Z,43.82
2023-04-26T09:27:00.858Z,45.35
2023-04-26T09:28:00.943Z,46.26
2023-04-26T09:29:00.807Z,46.45
2023-04-26T09:30:00.793Z,44.61
2023-04-26T09:31:00.851Z,45.43
2023-04-26T09:32:00.858Z,47.98
2023-04-26T09:33:00.809Z,44.28
2023-04-26T09:34:02.404Z,44.41
2023-04-26T09:35:00.769Z,47.57
2023-04-26T09:36:00.710Z,44.00
2023-04-26T09:37:00.848Z,44.92
2023-04-26T09:38:05.981Z,43.88
2023-04-26T09:39:00.757Z,43.16
2023-04-26T09:40:00.733Z,43.77
2023-04-26T09:41:00.720Z,42.94
2023-04-26T09:42:00.666Z,41.83
2023-04-26T09:43:00.753Z,41.53
2023-04-26T09:44:01.621Z,43.06
2023-04-26T09:45:00.776Z,44.06
2023-04-26T09:46:00.664Z,44.08
2023-04-26T09:47:01.555Z,42.85
2023-04-26T09:48:01.486Z,46.83
2023-04-26T09:49:00.696Z,43.88
2023-04-26T09:50:00.705Z,43.98
2023-04-26T09:51:00.836Z,45.51
2023-04-26T09:52:00.584Z,46.33
2023-04-26T09:53:01.503Z,43.26
2023-04-26T09:54:00.542Z,43.98
2023-04-26T09:55:00.602Z,43.06
2023-04-26T09:56:00.614Z,47.45
2023-04-26T09:57:00.673Z,47.45
2023-04-26T09:58:00.524Z,51.22
2023-04-26T09:59:00.798Z,44.46
2023-04-26T10:00:00.493Z,46.22
2023-04-26T10:01:00.605Z,45.79
2023-04-26T10:02:00.755Z,43.14
2023-04-26T10:03:00.546Z,41.71
2023-04-26T10:04:00.693Z,42.63
2023-04-26T10:05:00.594Z,41.82
2023-04-26T10:06:00.550Z,45.79
2023-04-26T10:07:00.492Z,47.12
2023-04-26T10:08:00.496Z,41.30
2023-04-26T10:09:00.871Z,41.92
2023-04-26T10:10:00.749Z,43.26
2023-04-26T10:11:00.944Z,41.63
2023-04-26T10:12:00.642Z,41.94
2023-04-26T10:13:00.583Z,42.04
2023-04-26T10:14:01.029Z,41.71
2023-04-26T10:15:00.410Z,41.61
2023-04-26T10:16:01.179Z,43.44
2023-04-26T10:17:00.941Z,43.06
2023-04-26T10:18:00.530Z,42.33
2023-04-26T10:19:00.489Z,42.43
2023-04-26T10:20:00.369Z,42.43
2023-04-26T10:21:00.275Z,42.73
2023-04-26T10:22:00.305Z,43.35
2023-04-26T10:23:01.310Z,41.20
2023-04-26T10:24:00.327Z,40.90
2023-04-26T10:25:00.269Z,41.30
2023-04-26T10:26:00.288Z,42.33
2023-04-26T10:27:00.253Z,42.53
2023-04-26T10:28:00.217Z,41.82
2023-04-26T10:29:02.993Z,41.82
2023-04-26T10:30:00.215Z,41.92
2023-04-26T10:31:00.216Z,42.43
2023-04-26T10:32:00.449Z,42.63
2023-04-26T10:33:00.317Z,41.61
2023-04-26T10:34:00.200Z,42.55
2023-04-26T10:35:00.197Z,42.85
2023-04-26T10:36:00.359Z,43.67
2023-04-26T10:37:00.156Z,44.59
2023-04-26T10:38:00.165Z,43.75
2023-04-26T10:39:00.108Z,44.34
2023-04-26T10:40:00.148Z,42.10
2023-04-26T10:41:00.198Z,42.21
2023-04-26T10:42:00.163Z,41.82
2023-04-26T10:43:00.050Z,45.87
2023-04-26T10:44:00.145Z,46.28
2023-04-26T10:45:00.057Z,44.32
2023-04-26T10:46:00.084Z,41.66
2023-04-26T10:47:02.065Z,41.96
2023-04-26T10:48:00.078Z,41.14
2023-04-26T10:49:00.008Z,40.03
2023-04-26T10:50:00.123Z,39.82
2023-04-26T10:51:00.119Z,40.05
2023-04-26T10:52:00.001Z,41.08
2023-04-26T10:53:01.000Z,41.20
2023-04-26T10:54:00.437Z,41.41
2023-04-26T10:54:59.978Z,41.71
2023-04-26T10:55:59.973Z,41.80
2023-04-26T10:56:59.984Z,42.39
2023-04-26T10:57:59.983Z,41.27
2023-04-26T10:58:59.925Z,40.74
2023-04-26T10:59:59.877Z,40.12
2023-04-26T11:01:00.194Z,39.72
2023-04-26T11:01:59.932Z,40.43
2023-04-26T11:03:00.090Z,40.84
2023-04-26T11:04:00.222Z,40.53
2023-04-26T11:05:00.036Z,39.51
2023-04-26T11:05:59.850Z,39.94
2023-04-26T11:06:59.812Z,40.96
2023-04-26T11:08:00.089Z,41.27
2023-04-26T11:08:59.971Z,40.76
2023-04-26T11:09:59.812Z,40.05
2023-04-26T11:11:00.225Z,41.55
2023-04-26T11:11:59.798Z,40.53
2023-04-26T11:12:59.773Z,41.35
2023-04-26T11:13:59.749Z,39.51
2023-04-26T11:14:59.723Z,39.90
2023-04-26T11:15:59.881Z,39.19
2023-04-26T11:16:59.710Z,38.46
2023-04-26T11:17:59.820Z,38.68
2023-04-26T11:18:59.743Z,39.19
2023-04-26T11:19:59.832Z,39.33
2023-04-26T11:20:59.943Z,39.74
2023-04-26T11:21:59.639Z,40.45
2023-04-26T11:22:59.708Z,40.96
2023-04-26T11:23:59.789Z,42.27
2023-04-26T11:24:59.668Z,40.43
2023-04-26T11:25:59.632Z,40.01
2023-04-26T11:26:59.853Z,39.50
2023-04-26T11:27:59.602Z,39.29
2023-04-26T11:28:59.579Z,39.72
2023-04-26T11:29:59.617Z,39.51
2023-04-26T11:30:59.674Z,39.53
2023-04-26T11:31:59.699Z,40.96
2023-04-26T11:32:59.697Z,39.74
2023-04-26T11:33:59.545Z,40.66
2023-04-26T11:34:59.582Z,40.25
2023-04-26T11:35:59.718Z,40.76
2023-04-26T11:36:59.585Z,40.35
2023-04-26T11:37:59.584Z,40.84
2023-04-26T11:38:59.559Z,40.05
2023-04-26T11:40:01.995Z,39.94
2023-04-26T11:40:59.533Z,40.47
2023-04-26T11:41:59.434Z,40.78
2023-04-26T11:42:59.577Z,40.59
2023-04-26T11:43:59.512Z,41.00
2023-04-26T11:45:00.536Z,41.00
2023-04-26T11:45:59.566Z,41.41
2023-04-26T11:46:59.516Z,41.71
2023-04-26T11:47:59.522Z,41.20
2023-04-26T11:48:59.425Z,40.80
2023-04-26T11:49:59.361Z,40.90
2023-04-26T11:50:59.426Z,41.00
2023-04-26T11:51:59.376Z,40.69
2023-04-26T11:52:59.480Z,40.88
2023-04-26T11:53:59.403Z,40.17
2023-04-26T11:54:59.445Z,39.76
2023-04-26T11:55:59.317Z,39.96
2023-04-26T11:56:59.698Z,40.17
2023-04-26T11:58:01.013Z,40.17
2023-04-26T11:58:59.300Z,40.25
2023-04-26T11:59:59.609Z,39.74
2023-04-26T12:00:59.249Z,38.80
2023-04-26T12:01:59.255Z,38.28
2023-04-26T12:02:59.411Z,37.97
2023-04-26T12:03:59.790Z,37.45
2023-04-26T12:04:59.385Z,37.45
2023-04-26T12:05:59.314Z,37.04
2023-04-26T12:06:59.180Z,37.24
2023-04-26T12:07:59.226Z,38.15
2023-04-26T12:08:59.284Z,38.04
2023-04-26T12:10:00.856Z,37.85
2023-04-26T12:10:59.290Z,38.46
2023-04-26T12:11:59.197Z,38.36
2023-04-26T12:12:59.260Z,37.87
2023-04-26T12:13:59.129Z,38.17
2023-04-26T12:14:59.133Z,38.17
2023-04-26T12:15:59.235Z,38.28
2023-04-26T12:16:59.240Z,37.87
2023-04-26T12:17:59.208Z,38.07
2023-04-26T12:18:59.065Z,38.17
2023-04-26T12:19:59.084Z,38.28
2023-04-26T12:20:59.167Z,38.28
2023-04-26T12:21:59.076Z,38.38
2023-04-26T12:22:59.243Z,38.76
2023-04-26T12:23:59.919Z,38.97
2023-04-26T12:24:59.074Z,38.76
2023-04-26T12:25:59.182Z,38.87
2023-04-26T12:27:00.407Z,38.36
2023-04-26T12:27:59.063Z,38.67
2023-04-26T12:28:59.017Z,38.06
2023-04-26T12:29:59.054Z,38.38
2023-04-26T12:30:58.963Z,38.89
2023-04-26T12:31:58.987Z,38.68
2023-04-26T12:33:09.164Z,38.78
2023-04-26T12:34:00.049Z,38.89
2023-04-26T12:34:58.991Z,38.38
2023-04-26T12:35:58.949Z,38.36
2023-04-26T12:36:58.904Z,38.56
2023-04-26T12:37:58.940Z,38.46
2023-04-26T12:38:58.906Z,38.76
2023-04-26T12:39:59.443Z,38.68
2023-04-26T12:40:58.887Z,38.89
2023-04-26T12:41:59.492Z,39.09
2023-04-26T12:42:58.935Z,38.76
2023-04-26T12:43:58.827Z,38.56
2023-04-26T12:44:58.824Z,38.36
2023-04-26T12:45:58.868Z,38.58
2023-04-26T12:46:58.863Z,38.48
2023-04-26T12:47:59.051Z,38.67
2023-04-26T12:48:58.781Z,38.87
2023-04-26T12:49:58.916Z,39.17
2023-04-26T12:50:59.025Z,38.97
2023-04-26T12:51:58.756Z,38.46